Time;durP1;ratioP1;P1;durP2;ratioP2;P2;SDS_P1;SDS_P2;PMS_P1;PMS_P2;Temp;Humidity;BMP_temperature;BMP_pressure;BME280_temperature;BME280_humidity;BME280_pressure;Samples;Min_cycle;Max_cycle;Signal;HPM_P1;HPM_P2
2022/01/20 00:00:02;;;;;;;;;;;;;;;15.42;56.13;102056.28;1049798;28;947;-61
2022/01/20 00:01:19;;;;;;;;;;;;;;;15.39;56.63;102045.75;1048696;28;838;-61
2022/01/20 00:02:09;;;;;;;;;;;;;;;15.37;56.37;102046.81;1049801;28;784;-60
2022/01/20 00:03:02;;;;;;;;;;;;;;;15.36;56.73;102051.31;1049913;28;790;-60
2022/01/20 00:03:54;;;;;;;;;;;;;;;15.37;56.43;102049.50;1049130;28;1236;-61
2022/01/20 00:04:51;;;;;;;;;;;;;;;15.36;56.65;102054.03;1049388;28;755;-60
2022/01/20 00:23:31;;;;;;;;;;;;;;;15.40;56.25;102071.66;1049935;28;708;-60
2022/01/20 00:26:46;;;;;;;;;;;;;;;15.29;56.86;102074.16;1049151;28;844;-61
2022/01/20 00:27:39;;;;;;;;;;;;;;;15.26;56.55;102077.91;1051051;28;1757;-61
2022/01/20 00:28:45;;;;;;;;;;;;;;;15.28;56.93;102077.81;1053187;28;1906;-62
2022/01/20 00:30:58;;;;;;;;;;;;;;;15.23;56.65;102066.50;1054516;28;892;-61
2022/01/20 00:32:04;;;;;;;;;;;;;;;15.26;56.65;102071.69;1053584;28;1029;-62
2022/01/20 00:34:42;;;;;;;;;;;;;;;15.25;56.66;102064.59;1053770;28;696;-62
2022/01/20 00:37:15;;;;;;;;;;;;;;;15.31;56.02;102063.31;1053442;28;708;-61
2022/01/20 00:37:24;;;;;;;;;;;;;;;15.32;56.72;102065.91;1053331;28;740;-60
2022/01/20 00:37:56;;;;;;;;;;;;;;;15.33;56.45;102064.97;1053905;28;775;-62
2022/01/20 00:38:46;;;;;;;;;;;;;;;15.33;56.63;102062.28;1054084;28;703;-62
2022/01/20 00:39:36;;;;;;;;;;;;;;;15.32;56.20;102057.84;1053588;28;824;-62
2022/01/20 00:40:27;;;;;;;;;;;;;;;15.28;56.45;102050.97;1054077;28;749;-60
2022/01/20 00:41:17;;;;;;;;;;;;;;;15.28;56.59;102042.91;1055034;28;928;-60
2022/01/20 00:42:08;;;;;;;;;;;;;;;15.29;55.84;102045.50;1053771;28;1299;-60
2022/01/20 00:42:58;;;;;;;;;;;;;;;15.31;55.98;102042.72;1053629;28;684;-60
2022/01/20 00:43:49;;;;;;;;;;;;;;;15.31;56.05;102048.06;1054046;28;719;-60
2022/01/20 00:44:39;;;;;;;;;;;;;;;15.28;56.35;102046.44;1053966;28;799;-60
2022/01/20 00:45:30;;;;;;;;;;;;;;;15.28;56.24;102048.28;1053834;28;769;-60
2022/01/20 00:46:20;;;;;;;;;;;;;;;15.27;56.58;102049.22;1054490;28;1601;-60
2022/01/20 00:47:11;;;;;;;;;;;;;;;15.27;56.09;102046.53;1055227;28;715;-60
2022/01/20 00:48:01;;;;;;;;;;;;;;;15.27;56.44;102049.22;1055261;28;767;-61
2022/01/20 00:48:51;;;;;;;;;;;;;;;15.26;56.38;102058.25;1055066;28;737;-61
2022/01/20 00:49:42;;;;;;;;;;;;;;;15.26;56.63;102061.78;1055051;28;747;-61
2022/01/20 00:50:35;;;;;;;;;;;;;;;15.23;56.60;102055.75;1050926;28;687;-61
2022/01/20 00:51:25;;;;;;;;;;;;;;;15.21;56.76;102063.94;1050364;28;629;-61
2022/01/20 00:52:15;;;;;;;;;;;;;;;15.21;56.63;102060.41;1053956;28;665;-61
2022/01/20 00:53:06;;;;;;;;;;;;;;;15.18;56.65;102064.13;1054382;28;724;-61
2022/01/20 00:53:56;;;;;;;;;;;;;;;15.19;56.79;102070.38;1054306;28;944;-61
2022/01/20 00:54:47;;;;;;;;;;;;;;;15.21;56.43;102069.31;1054482;28;791;-61
2022/01/20 00:55:37;;;;;;;;;;;;;;;15.20;56.57;102072.09;1053894;28;2011;-61
2022/01/20 00:56:27;;;;;;;;;;;;;;;15.19;56.65;102078.44;1054052;28;727;-61
2022/01/20 00:57:18;;;;;;;;;;;;;;;15.17;56.65;102074.97;1053939;28;692;-61
2022/01/20 00:58:08;;;;;;;;;;;;;;;15.16;56.74;102081.31;1053634;28;849;-61
2022/01/20 00:58:59;;;;;;;;;;;;;;;15.14;56.85;102084.09;1052679;28;729;-61
2022/01/20 00:59:49;;;;;;;;;;;;;;;15.17;56.54;102086.56;1054518;28;788;-61
2022/01/20 01:00:40;;;;;;;;;;;;;;;15.18;56.66;102085.63;1053809;28;708;-61
2022/01/20 01:01:30;;;;;;;;;;;;;;;15.20;56.74;102078.31;1053897;28;785;-61
2022/01/20 01:02:21;;;;;;;;;;;;;;;15.21;56.38;102081.88;1053906;28;946;-60
2022/01/20 01:03:11;;;;;;;;;;;;;;;15.21;56.12;102087.25;1052889;28;757;-60
2022/01/20 01:04:02;;;;;;;;;;;;;;;15.20;56.57;102082.84;1053974;28;1723;-61
2022/01/20 01:04:52;;;;;;;;;;;;;;;15.21;56.19;102079.19;1053023;28;701;-61
2022/01/20 01:06:01;;;;;;;;;;;;;;;15.20;56.39;102077.47;1053799;28;1137;-61
2022/01/20 01:07:11;;;;;;;;;;;;;;;15.21;55.93;102081.88;1053803;28;806;-61
2022/01/20 01:08:02;;;;;;;;;;;;;;;15.22;56.65;102081.78;1054857;28;812;-60
2022/01/20 01:08:52;;;;;;;;;;;;;;;15.20;56.58;102081.00;1053925;28;704;-60
2022/01/20 01:09:44;;;;;;;;;;;;;;;15.17;56.34;102077.66;1053957;28;715;-61
2022/01/20 01:10:38;;;;;;;;;;;;;;;15.15;56.59;102076.91;1054881;28;924;-61
2022/01/20 01:11:28;;;;;;;;;;;;;;;15.12;56.26;102077.94;1053364;28;621;-61
2022/01/20 01:12:29;;;;;;;;;;;;;;;15.10;56.35;102076.31;1053953;28;858;-61
2022/01/20 01:13:22;;;;;;;;;;;;;;;15.08;56.69;102079.09;1053303;28;782;-62
2022/01/20 01:14:13;;;;;;;;;;;;;;;15.08;56.74;102081.78;1053247;28;768;-61
2022/01/20 01:15:07;;;;;;;;;;;;;;;15.09;56.45;102085.34;1053203;28;702;-61
2022/01/20 01:15:57;;;;;;;;;;;;;;;15.11;56.30;102072.66;1053863;28;711;-60
2022/01/20 01:22:03;;;;;;;;;;;;;;;15.01;56.45;102075.09;1053903;28;742;-60
2022/01/20 01:22:54;;;;;;;;;;;;;;;15.04;56.49;102072.22;1053108;28;717;-60
2022/01/20 01:23:44;;;;;;;;;;;;;;;15.04;56.36;102076.72;1053132;28;1806;-58
2022/01/20 01:24:35;;;;;;;;;;;;;;;15.04;56.42;102068.69;1050271;28;712;-60
2022/01/20 01:25:25;;;;;;;;;;;;;;;15.05;56.85;102073.91;1050794;28;797;-60
2022/01/20 01:26:16;;;;;;;;;;;;;;;15.03;56.56;102070.50;1049711;28;709;-61
2022/01/20 01:27:07;;;;;;;;;;;;;;;15.03;56.51;102073.19;1049331;28;1073;-61
2022/01/20 01:27:59;;;;;;;;;;;;;;;15.04;56.94;102074.03;1050788;28;697;-61
2022/01/20 01:28:50;;;;;;;;;;;;;;;15.05;56.25;102067.72;1049581;28;1897;-61
2022/01/20 01:31:39;;;;;;;;;;;;;;;15.05;56.41;102073.91;1058051;28;868;-60
2022/01/20 01:32:45;;;;;;;;;;;;;;;15.04;56.51;102068.69;1058746;28;611;-61
2022/01/20 01:33:38;;;;;;;;;;;;;;;15.05;56.67;102079.28;1058481;28;879;-61
2022/01/20 01:34:30;;;;;;;;;;;;;;;15.05;56.13;102078.47;1058558;28;681;-62
2022/01/20 01:35:22;;;;;;;;;;;;;;;15.07;56.23;102080.06;1058499;28;830;-62
2022/01/20 01:36:12;;;;;;;;;;;;;;;15.05;56.30;102087.34;1058637;28;753;-62
2022/01/20 01:37:07;;;;;;;;;;;;;;;15.04;56.45;102082.09;1059276;27;783;-60
2022/01/20 01:38:56;;;;;;;;;;;;;;;15.03;56.74;102086.59;1057999;28;729;-60
2022/01/20 01:39:47;;;;;;;;;;;;;;;15.03;56.27;102085.75;1059125;27;848;-60
2022/01/20 01:40:38;;;;;;;;;;;;;;;15.05;56.27;102086.50;1058540;28;930;-60
2022/01/20 01:41:33;;;;;;;;;;;;;;;15.03;56.49;102086.59;1058731;28;706;-61
2022/01/20 01:42:30;;;;;;;;;;;;;;;15.04;56.69;102085.66;1058647;28;680;-60
2022/01/20 01:43:26;;;;;;;;;;;;;;;15.00;56.59;102088.63;1058484;28;641;-60
2022/01/20 01:44:28;;;;;;;;;;;;;;;15.00;56.37;102085.94;1056861;28;1724;-60
2022/01/20 01:45:19;;;;;;;;;;;;;;;15.00;56.46;102080.56;1050797;28;613;-61
2022/01/20 01:46:09;;;;;;;;;;;;;;;15.00;56.59;102092.16;1052398;28;1555;-61
2022/01/20 01:47:00;;;;;;;;;;;;;;;15.01;56.04;102090.34;1049132;28;685;-61
2022/01/20 01:47:50;;;;;;;;;;;;;;;15.00;56.17;102097.53;1048332;28;734;-60
2022/01/20 01:48:41;;;;;;;;;;;;;;;15.01;56.44;102101.09;1049387;28;1967;-60
2022/01/20 01:49:31;;;;;;;;;;;;;;;15.00;56.75;102097.53;1049515;28;759;-60
2022/01/20 01:50:22;;;;;;;;;;;;;;;15.01;56.47;102093.91;1048640;28;1193;-60
2022/01/20 01:51:12;;;;;;;;;;;;;;;15.03;56.29;102097.34;1052214;28;1092;-60
2022/01/20 01:52:03;;;;;;;;;;;;;;;15.05;56.36;102099.94;1053735;28;801;-60
2022/01/20 01:52:53;;;;;;;;;;;;;;;15.07;56.37;102103.34;1054320;28;703;-60
2022/01/20 01:53:43;;;;;;;;;;;;;;;15.08;56.16;102105.09;1054334;28;690;-59
2022/01/20 01:54:34;;;;;;;;;;;;;;;15.08;55.99;102099.72;1054319;28;716;-59
2022/01/20 01:55:24;;;;;;;;;;;;;;;15.04;56.30;102103.56;1053839;28;639;-60
2022/01/20 01:56:15;;;;;;;;;;;;;;;15.03;56.22;102104.53;1053775;28;776;-59
2022/01/20 01:57:09;;;;;;;;;;;;;;;15.02;56.37;102109.03;1053490;28;903;-60
2022/01/20 01:57:59;;;;;;;;;;;;;;;15.05;56.42;102105.31;1053661;28;675;-60
2022/01/20 01:58:49;;;;;;;;;;;;;;;15.03;56.27;102112.59;1054252;28;692;-60
2022/01/20 01:59:40;;;;;;;;;;;;;;;15.04;56.64;102108.94;1049686;28;665;-59
2022/01/20 02:00:30;;;;;;;;;;;;;;;15.02;56.49;102111.72;1050226;28;700;-60
2022/01/20 02:01:21;;;;;;;;;;;;;;;15.03;56.46;102118.81;1050496;28;723;-60
2022/01/20 02:02:12;;;;;;;;;;;;;;;15.05;56.19;102116.03;1053938;28;597;-60
2022/01/20 02:03:02;;;;;;;;;;;;;;;15.05;56.30;102127.63;1053577;28;661;-60
2022/01/20 02:03:59;;;;;;;;;;;;;;;15.07;55.98;102132.88;1053622;28;1211;-60
2022/01/20 02:04:50;;;;;;;;;;;;;;;15.07;56.52;102136.44;1053624;28;780;-60
2022/01/20 02:05:57;;;;;;;;;;;;;;;15.06;55.96;102140.06;1053697;28;657;-60
2022/01/20 02:07:08;;;;;;;;;;;;;;;15.08;56.17;102126.56;1053525;28;835;-61
2022/01/20 02:08:27;;;;;;;;;;;;;;;15.09;56.23;102133.66;1053695;28;656;-60
2022/01/20 02:18:42;;;;;;;;;;;;;;;15.03;56.34;102113.44;1054794;28;821;-59
2022/01/20 02:19:33;;;;;;;;;;;;;;;15.01;56.69;102109.13;1053455;28;840;-61
2022/01/20 02:20:23;;;;;;;;;;;;;;;15.01;56.36;102110.00;1055812;27;738;-61
2022/01/20 02:21:14;;;;;;;;;;;;;;;15.02;56.59;102108.19;1054862;28;934;-61
2022/01/20 02:22:05;;;;;;;;;;;;;;;15.03;56.25;102112.59;1050308;28;767;-61
2022/01/20 02:22:55;;;;;;;;;;;;;;;15.01;56.86;102107.31;1049711;28;851;-61
2022/01/20 02:23:46;;;;;;;;;;;;;;;15.03;56.77;102107.22;1054808;28;739;-60
2022/01/20 02:24:36;;;;;;;;;;;;;;;15.04;56.08;102104.44;1053729;28;684;-60
2022/01/20 02:25:27;;;;;;;;;;;;;;;15.04;56.79;102117.88;1054212;28;921;-61
2022/01/20 02:26:17;;;;;;;;;;;;;;;15.02;56.16;102113.53;1054773;28;696;-60
2022/01/20 02:27:07;;;;;;;;;;;;;;;15.02;56.81;102117.09;1054043;28;1442;-60
2022/01/20 02:27:58;;;;;;;;;;;;;;;15.02;56.70;102114.41;1053993;28;1032;-60
2022/01/20 02:28:48;;;;;;;;;;;;;;;15.03;56.91;102112.59;1054740;28;1886;-60
2022/01/20 02:29:39;;;;;;;;;;;;;;;15.04;56.92;102114.31;1054053;28;790;-61
2022/01/20 02:30:29;;;;;;;;;;;;;;;15.04;56.58;102103.56;1054746;28;761;-61
2022/01/20 02:31:19;;;;;;;;;;;;;;;15.03;56.56;102107.22;1054149;28;995;-61
2022/01/20 02:32:10;;;;;;;;;;;;;;;15.02;56.44;102102.81;1054821;28;790;-61
2022/01/20 02:33:00;;;;;;;;;;;;;;;15.02;56.57;102102.81;1054744;28;721;-61
2022/01/20 02:33:51;;;;;;;;;;;;;;;15.00;56.58;102108.28;1054690;28;691;-61
2022/01/20 02:34:41;;;;;;;;;;;;;;;14.94;56.65;102101.47;1054661;28;658;-60
2022/01/20 02:35:32;;;;;;;;;;;;;;;14.91;56.94;102104.34;1054668;28;688;-60
2022/01/20 02:36:22;;;;;;;;;;;;;;;14.90;56.56;102096.38;1054253;28;866;-60
2022/01/20 02:37:15;;;;;;;;;;;;;;;14.90;56.91;102102.59;1054753;28;709;-60
2022/01/20 02:38:17;;;;;;;;;;;;;;;14.93;56.70;102099.72;1054298;28;1673;-59
2022/01/20 02:40:04;;;;;;;;;;;;;;;14.93;56.50;102089.00;1055845;27;754;-61
2022/01/20 02:44:49;;;;;;;;;;;;;;;14.94;56.14;102098.78;1055615;27;1189;-60
2022/01/20 02:45:03;;;;;;;;;;;;;;;14.92;56.67;102106.06;1054624;28;1643;-61
2022/01/20 02:45:53;;;;;;;;;;;;;;;14.93;56.65;102101.56;1054747;28;1654;-61
2022/01/20 02:46:43;;;;;;;;;;;;;;;14.93;56.58;102098.88;1057831;28;839;-61
2022/01/20 02:47:34;;;;;;;;;;;;;;;14.93;56.77;102102.41;1057630;28;705;-61
2022/01/20 02:48:24;;;;;;;;;;;;;;;14.92;56.78;102095.31;1057692;28;835;-61
2022/01/20 02:49:15;;;;;;;;;;;;;;;14.93;56.57;102098.88;1058838;28;648;-61
2022/01/20 02:50:05;;;;;;;;;;;;;;;14.93;56.55;102107.78;1055949;28;1268;-61
2022/01/20 02:50:57;;;;;;;;;;;;;;;14.91;57.02;102109.69;1054069;28;836;-61
2022/01/20 02:51:48;;;;;;;;;;;;;;;14.89;57.10;102103.56;1054135;28;828;-61
2022/01/20 02:52:38;;;;;;;;;;;;;;;14.86;56.77;102102.91;1054102;28;853;-61
2022/01/20 02:53:28;;;;;;;;;;;;;;;14.87;56.54;102107.31;1054036;28;718;-61
2022/01/20 02:54:19;;;;;;;;;;;;;;;14.85;56.37;102095.81;1054211;28;697;-61
2022/01/20 02:55:09;;;;;;;;;;;;;;;14.88;56.21;102090.25;1054036;28;781;-61
2022/01/20 02:56:00;;;;;;;;;;;;;;;14.89;56.79;102092.81;1054216;28;730;-61
2022/01/20 02:56:50;;;;;;;;;;;;;;;14.91;56.58;102100.78;1053926;28;961;-61
2022/01/20 02:57:41;;;;;;;;;;;;;;;14.92;56.53;102089.97;1054140;28;804;-61
2022/01/20 02:58:31;;;;;;;;;;;;;;;14.91;56.65;102092.72;1054118;28;637;-61
2022/01/20 02:59:22;;;;;;;;;;;;;;;14.88;56.54;102092.91;1054156;28;645;-61
2022/01/20 03:00:12;;;;;;;;;;;;;;;14.89;56.75;102095.50;1054080;28;671;-60
2022/01/20 03:01:02;;;;;;;;;;;;;;;14.88;56.26;102088.41;1054046;28;736;-61
2022/01/20 03:01:53;;;;;;;;;;;;;;;14.88;56.66;102085.72;1054116;28;787;-61
2022/01/20 03:02:43;;;;;;;;;;;;;;;14.90;56.24;102089.19;1054000;28;696;-61
2022/01/20 03:03:35;;;;;;;;;;;;;;;14.90;56.19;102085.63;1049489;28;705;-61
2022/01/20 03:04:26;;;;;;;;;;;;;;;14.90;56.53;102081.13;1049704;28;830;-60
2022/01/20 03:05:17;;;;;;;;;;;;;;;14.87;56.85;102083.13;1053586;28;853;-61
2022/01/20 03:06:07;;;;;;;;;;;;;;;14.87;56.33;102083.13;1050984;28;1774;-60
2022/01/20 03:06:57;;;;;;;;;;;;;;;14.87;56.87;102080.47;1050837;28;744;-61
2022/01/20 03:07:48;;;;;;;;;;;;;;;14.89;56.69;102090.13;1054006;28;689;-60
2022/01/20 03:08:39;;;;;;;;;;;;;;;14.88;56.67;102085.72;1052811;28;1890;-60
2022/01/20 03:09:30;;;;;;;;;;;;;;;14.87;56.70;102086.69;1052968;28;861;-60
2022/01/20 03:10:20;;;;;;;;;;;;;;;14.83;56.95;102095.06;1052827;28;614;-60
2022/01/20 03:11:10;;;;;;;;;;;;;;;14.82;56.58;102099.56;1053080;28;774;-61
2022/01/20 03:12:01;;;;;;;;;;;;;;;14.82;56.44;102094.19;1052552;28;1234;-60
2022/01/20 03:12:51;;;;;;;;;;;;;;;14.83;56.60;102095.06;1052882;28;654;-60
2022/01/20 03:13:42;;;;;;;;;;;;;;;14.82;56.66;102091.50;1053056;28;946;-61
2022/01/20 03:14:32;;;;;;;;;;;;;;;14.82;56.32;102091.50;1052804;28;754;-60
2022/01/20 03:15:23;;;;;;;;;;;;;;;14.84;56.43;102094.09;1052905;28;711;-60
2022/01/20 03:16:13;;;;;;;;;;;;;;;14.86;56.22;102101.09;1048968;28;693;-61
2022/01/20 03:17:04;;;;;;;;;;;;;;;14.83;56.95;102103.09;1046591;28;1781;-59
2022/01/20 03:17:54;;;;;;;;;;;;;;;14.83;56.32;102112.03;1048859;28;1407;-60
2022/01/20 03:18:45;;;;;;;;;;;;;;;14.84;56.28;102112.88;1050339;28;703;-60
2022/01/20 03:19:35;;;;;;;;;;;;;;;14.84;56.18;102118.25;1050493;28;853;-60
2022/01/20 03:20:26;;;;;;;;;;;;;;;14.83;56.22;102120.06;1050479;28;696;-60
2022/01/20 03:21:16;;;;;;;;;;;;;;;14.83;56.39;102124.56;1050474;28;636;-60
2022/01/20 03:22:07;;;;;;;;;;;;;;;14.84;56.09;102121.81;1050334;28;949;-60
2022/01/20 03:22:57;;;;;;;;;;;;;;;14.85;56.57;102139.63;1050514;28;830;-60
2022/01/20 03:23:47;;;;;;;;;;;;;;;14.87;55.97;102144.88;1050501;28;806;-59
2022/01/20 03:24:38;;;;;;;;;;;;;;;14.87;56.64;102143.06;1050562;28;633;-60
2022/01/20 03:25:28;;;;;;;;;;;;;;;14.85;56.08;102146.81;1050493;28;652;-60
2022/01/20 03:26:19;;;;;;;;;;;;;;;14.83;56.51;102132.63;1049736;28;802;-60
2022/01/20 03:27:09;;;;;;;;;;;;;;;14.80;56.49;102130.13;1049717;28;951;-61
2022/01/20 03:27:59;;;;;;;;;;;;;;;14.77;56.27;102128.50;1049791;28;705;-61
2022/01/20 03:28:50;;;;;;;;;;;;;;;14.80;56.13;102124.75;1050470;28;1963;-61
2022/01/20 03:29:41;;;;;;;;;;;;;;;14.80;56.21;102125.63;1049232;28;697;-61
2022/01/20 03:30:31;;;;;;;;;;;;;;;14.80;56.74;102128.31;1050473;28;697;-62
2022/01/20 03:31:22;;;;;;;;;;;;;;;14.82;56.10;102130.91;1050317;28;974;-61
2022/01/20 03:32:12;;;;;;;;;;;;;;;14.83;56.63;102127.25;1050401;28;833;-61
2022/01/20 03:33:02;;;;;;;;;;;;;;;14.83;56.64;102130.81;1050404;28;767;-61
2022/01/20 03:33:53;;;;;;;;;;;;;;;14.87;56.33;102134.13;1050425;28;708;-61
2022/01/20 03:34:43;;;;;;;;;;;;;;;14.87;56.16;102135.00;1050472;28;773;-61
2022/01/20 03:35:34;;;;;;;;;;;;;;;14.86;56.27;102125.25;1050383;28;693;-61
2022/01/20 03:36:25;;;;;;;;;;;;;;;14.85;56.31;102136.09;1051069;28;826;-61
2022/01/20 03:37:15;;;;;;;;;;;;;;;14.85;56.70;102131.59;1051254;28;778;-61
2022/01/20 03:38:05;;;;;;;;;;;;;;;14.84;56.63;102143.28;1051181;28;689;-61
2022/01/20 03:38:56;;;;;;;;;;;;;;;14.86;56.32;102141.34;1051302;28;895;-61
2022/01/20 03:39:46;;;;;;;;;;;;;;;14.86;56.49;102138.69;1051243;28;736;-61
2022/01/20 03:40:37;;;;;;;;;;;;;;;14.85;56.76;102136.09;1051078;28;731;-61
2022/01/20 03:41:27;;;;;;;;;;;;;;;14.84;55.98;102137.91;1051326;28;625;-61
2022/01/20 03:42:18;;;;;;;;;;;;;;;14.86;56.67;102137.81;1050980;28;1595;-60
2022/01/20 03:43:08;;;;;;;;;;;;;;;14.85;56.56;102136.09;1051358;28;712;-60
2022/01/20 03:43:58;;;;;;;;;;;;;;;14.85;56.73;102138.75;1051231;28;787;-60
2022/01/20 03:44:49;;;;;;;;;;;;;;;14.84;56.63;102137.91;1051061;28;872;-61
2022/01/20 03:45:41;;;;;;;;;;;;;;;14.84;56.37;102145.09;1051250;28;624;-61
2022/01/20 03:46:32;;;;;;;;;;;;;;;14.83;56.29;102146.91;1046790;28;827;-60
2022/01/20 03:47:24;;;;;;;;;;;;;;;14.82;56.32;102139.81;1046868;28;698;-60
2022/01/20 03:48:15;;;;;;;;;;;;;;;14.82;56.49;102147.88;1050590;28;715;-61
2022/01/20 03:49:20;;;;;;;;;;;;;;;14.84;56.72;102150.47;1049312;28;774;-61
2022/01/20 03:50:59;;;;;;;;;;;;;;;14.83;55.87;102146.03;1053412;28;1156;-61
2022/01/20 03:51:21;;;;;;;;;;;;;;;14.84;56.18;102147.78;1054047;28;1625;-61
2022/01/20 03:52:12;;;;;;;;;;;;;;;14.84;56.00;102145.94;1054269;28;803;-61
2022/01/20 03:53:02;;;;;;;;;;;;;;;14.83;56.73;102146.91;1054122;28;824;-61
2022/01/20 03:53:52;;;;;;;;;;;;;;;14.84;56.13;102145.09;1054228;28;789;-61
2022/01/20 03:54:43;;;;;;;;;;;;;;;14.84;56.31;102150.47;1054152;28;1678;-61
2022/01/20 03:55:33;;;;;;;;;;;;;;;14.83;56.68;102148.72;1057738;28;856;-61
2022/01/20 03:56:24;;;;;;;;;;;;;;;14.84;56.15;102153.13;1058401;28;641;-61
2022/01/20 03:57:14;;;;;;;;;;;;;;;14.83;56.67;102163.00;1058839;28;1146;-61
2022/01/20 03:58:04;;;;;;;;;;;;;;;14.83;55.91;102149.59;1057818;28;750;-62
2022/01/20 03:58:55;;;;;;;;;;;;;;;14.82;56.42;102163.09;1058108;28;795;-62
2022/01/20 03:59:45;;;;;;;;;;;;;;;14.83;56.57;102154.09;1058860;28;874;-62
2022/01/20 04:00:36;;;;;;;;;;;;;;;14.79;56.88;102158.78;1057854;28;899;-62
2022/01/20 04:01:26;;;;;;;;;;;;;;;14.81;56.40;102161.38;1058846;28;908;-62
2022/01/20 04:02:16;;;;;;;;;;;;;;;14.80;56.50;102154.28;1058438;28;613;-60
2022/01/20 04:03:07;;;;;;;;;;;;;;;14.80;56.19;102160.50;1058033;28;760;-61
2022/01/20 04:03:57;;;;;;;;;;;;;;;14.82;56.36;102155.91;1057310;28;1784;-62
2022/01/20 04:04:48;;;;;;;;;;;;;;;14.82;56.24;102161.28;1057835;28;663;-61
2022/01/20 04:05:46;;;;;;;;;;;;;;;14.79;56.02;102153.41;1058210;28;806;-60
2022/01/20 04:06:37;;;;;;;;;;;;;;;14.80;56.67;102148.91;1058436;28;652;-60
2022/01/20 04:07:27;;;;;;;;;;;;;;;14.80;56.64;102162.34;1058409;28;772;-60
2022/01/20 04:08:18;;;;;;;;;;;;;;;14.79;56.34;102164.16;1057856;28;786;-61
2022/01/20 04:09:08;;;;;;;;;;;;;;;14.79;56.35;102164.16;1058363;28;771;-60
2022/01/20 04:09:58;;;;;;;;;;;;;;;14.80;56.31;102170.38;1058233;28;797;-60
2022/01/20 04:10:49;;;;;;;;;;;;;;;14.80;56.59;102165.03;1058573;28;814;-60
2022/01/20 04:11:39;;;;;;;;;;;;;;;14.78;56.33;102167.78;1058371;28;629;-60
2022/01/20 04:12:30;;;;;;;;;;;;;;;14.80;57.05;102173.06;1058410;28;731;-59
2022/01/20 04:13:20;;;;;;;;;;;;;;;14.79;56.25;102169.53;1059071;28;622;-60
2022/01/20 04:14:12;;;;;;;;;;;;;;;14.79;56.33;102177.56;1057795;28;765;-59
2022/01/20 04:15:07;;;;;;;;;;;;;;;14.80;56.18;102171.25;1058374;28;1191;-59
2022/01/20 04:15:59;;;;;;;;;;;;;;;14.78;56.33;102167.78;1058392;28;858;-58
2022/01/20 04:17:03;;;;;;;;;;;;;;;14.77;56.70;102171.44;1058457;28;795;-59
2022/01/20 04:17:56;;;;;;;;;;;;;;;14.79;56.26;102174.03;1058257;28;705;-60
2022/01/20 04:18:52;;;;;;;;;;;;;;;14.77;57.09;102182.16;1058306;28;748;-59
2022/01/20 04:19:43;;;;;;;;;;;;;;;14.79;56.38;102182.94;1058446;28;688;-61
2022/01/20 04:20:33;;;;;;;;;;;;;;;14.79;56.18;102171.34;1058280;28;824;-61
2022/01/20 04:21:24;;;;;;;;;;;;;;;14.76;57.01;102183.13;1057741;28;842;-61
2022/01/20 04:22:14;;;;;;;;;;;;;;;14.77;56.59;102184.84;1058876;28;828;-61
2022/01/20 04:23:04;;;;;;;;;;;;;;;14.76;57.04;102185.81;1058102;28;1811;-61
2022/01/20 04:23:55;;;;;;;;;;;;;;;14.74;57.07;102187.72;1057754;28;780;-61
2022/01/20 04:24:45;;;;;;;;;;;;;;;14.74;56.75;102187.72;1057562;28;791;-61
2022/01/20 04:25:36;;;;;;;;;;;;;;;14.75;56.10;102184.06;1057836;28;668;-61
2022/01/20 04:26:26;;;;;;;;;;;;;;;14.74;56.93;102176.13;1057518;28;960;-61
2022/01/20 04:27:17;;;;;;;;;;;;;;;14.74;56.57;102181.47;1058134;28;1156;-61
2022/01/20 04:28:07;;;;;;;;;;;;;;;14.75;56.61;102188.56;1058336;28;700;-61
2022/01/20 04:28:58;;;;;;;;;;;;;;;14.74;56.57;102193.09;1057581;28;1901;-61
2022/01/20 04:29:48;;;;;;;;;;;;;;;14.75;56.28;102197.50;1053622;28;682;-61
2022/01/20 04:30:38;;;;;;;;;;;;;;;14.75;56.58;102196.63;1053593;28;731;-61
2022/01/20 04:31:29;;;;;;;;;;;;;;;14.76;56.44;102203.72;1058159;28;672;-61
2022/01/20 04:32:19;;;;;;;;;;;;;;;14.77;56.26;102208.13;1058299;28;629;-61
2022/01/20 04:33:10;;;;;;;;;;;;;;;14.77;56.21;102202.78;1058386;28;816;-61
2022/01/20 04:34:00;;;;;;;;;;;;;;;14.76;56.67;102206.41;1058293;28;710;-61
2022/01/20 04:34:51;;;;;;;;;;;;;;;14.77;56.27;102208.13;1057608;28;1165;-61
2022/01/20 04:35:41;;;;;;;;;;;;;;;14.76;56.25;102215.31;1057630;28;743;-61
2022/01/20 04:36:33;;;;;;;;;;;;;;;14.76;56.44;102220.69;1057625;28;660;-61
2022/01/20 04:37:24;;;;;;;;;;;;;;;14.76;56.28;102217.13;1058365;28;743;-61
2022/01/20 04:38:14;;;;;;;;;;;;;;;14.75;56.65;102208.22;1057501;28;719;-61
2022/01/20 04:39:05;;;;;;;;;;;;;;;14.74;56.53;102217.22;1058215;28;744;-62
2022/01/20 04:39:56;;;;;;;;;;;;;;;14.73;56.26;102212.81;1058222;28;818;-62
2022/01/20 04:40:46;;;;;;;;;;;;;;;14.75;56.74;102215.41;1058239;28;699;-61
2022/01/20 04:41:37;;;;;;;;;;;;;;;14.75;56.72;102220.78;1058397;28;720;-61
2022/01/20 04:42:29;;;;;;;;;;;;;;;14.75;56.41;102224.31;1057644;28;696;-62
2022/01/20 04:43:20;;;;;;;;;;;;;;;14.73;56.97;102220.88;1058231;28;948;-62
2022/01/20 04:44:35;;;;;;;;;;;;;;;14.71;56.81;102228.16;1058372;28;864;-62
2022/01/20 04:45:32;;;;;;;;;;;;;;;14.72;56.87;102216.47;1058217;28;853;-61
2022/01/20 04:46:32;;;;;;;;;;;;;;;14.71;57.16;102225.47;1058313;28;644;-62
2022/01/20 04:47:35;;;;;;;;;;;;;;;14.71;56.34;102216.53;1057938;28;847;-62
2022/01/20 04:48:44;;;;;;;;;;;;;;;14.69;57.11;102222.00;1058127;28;687;-62
2022/01/20 04:57:39;;;;;;;;;;;;;;;14.68;56.50;102222.13;1054384;28;800;-61
2022/01/20 04:58:30;;;;;;;;;;;;;;;14.68;56.14;102225.66;1055199;28;854;-61
2022/01/20 04:59:21;;;;;;;;;;;;;;;14.69;56.75;102230.06;1054632;28;695;-60
2022/01/20 05:00:11;;;;;;;;;;;;;;;14.69;56.65;102230.06;1054971;28;690;-61
2022/01/20 05:01:03;;;;;;;;;;;;;;;14.69;56.53;102223.84;1055179;28;739;-61
2022/01/20 05:01:53;;;;;;;;;;;;;;;14.69;56.28;102230.06;1055621;27;1365;-61
2022/01/20 05:02:44;;;;;;;;;;;;;;;14.68;56.78;102233.72;1054482;28;794;-61
2022/01/20 05:03:34;;;;;;;;;;;;;;;14.68;56.18;102238.22;1055035;28;681;-61
2022/01/20 05:04:25;;;;;;;;;;;;;;;14.68;56.76;102241.78;1055136;28;829;-61
2022/01/20 05:05:16;;;;;;;;;;;;;;;14.68;56.79;102246.28;1055620;28;629;-61
2022/01/20 05:06:07;;;;;;;;;;;;;;;14.67;56.96;102245.41;1048774;28;811;-61
2022/01/20 05:06:58;;;;;;;;;;;;;;;14.67;56.60;102242.72;1049870;28;772;-61
2022/01/20 05:07:49;;;;;;;;;;;;;;;14.67;56.56;102245.41;1054070;28;825;-60
2022/01/20 05:08:39;;;;;;;;;;;;;;;14.68;56.05;102241.78;1052526;28;1988;-61
2022/01/20 05:09:30;;;;;;;;;;;;;;;14.68;56.35;102241.78;1055097;28;689;-61
2022/01/20 05:10:20;;;;;;;;;;;;;;;14.66;57.11;102232.94;1055067;28;899;-61
2022/01/20 05:11:13;;;;;;;;;;;;;;;14.66;56.45;102241.00;1055130;28;747;-61
2022/01/20 05:12:08;;;;;;;;;;;;;;;14.67;57.00;102242.72;1055422;27;754;-61
2022/01/20 05:13:48;;;;;;;;;;;;;;;14.66;56.31;102237.44;1054958;28;731;-61
2022/01/20 05:14:39;;;;;;;;;;;;;;;14.66;56.02;102243.69;1054996;28;839;-61
2022/01/20 05:15:30;;;;;;;;;;;;;;;14.66;56.37;102246.38;1055139;28;635;-61
2022/01/20 05:16:23;;;;;;;;;;;;;;;14.67;56.54;102252.59;1055846;27;597;-61
2022/01/20 05:17:14;;;;;;;;;;;;;;;14.67;56.69;102253.47;1053262;28;1014;-61
2022/01/20 05:18:04;;;;;;;;;;;;;;;14.67;56.64;102255.28;1055021;28;763;-61
2022/01/20 05:18:55;;;;;;;;;;;;;;;14.67;56.16;102256.13;1054948;28;939;-61
2022/01/20 05:19:45;;;;;;;;;;;;;;;14.67;56.64;102256.13;1055026;28;703;-61
2022/01/20 05:20:35;;;;;;;;;;;;;;;14.65;56.20;102255.38;1054883;28;766;-60
2022/01/20 05:21:26;;;;;;;;;;;;;;;14.65;56.38;102258.03;1055000;28;679;-59
2022/01/20 05:22:16;;;;;;;;;;;;;;;14.65;57.01;102255.38;1055022;28;702;-59
2022/01/20 05:23:07;;;;;;;;;;;;;;;14.65;56.84;102262.56;1054892;28;870;-60
2022/01/20 05:23:57;;;;;;;;;;;;;;;14.64;56.68;102261.69;1055010;28;777;-61
2022/01/20 05:24:48;;;;;;;;;;;;;;;14.64;56.61;102261.69;1054932;28;810;-61
2022/01/20 05:25:38;;;;;;;;;;;;;;;14.63;56.41;102270.69;1057068;28;1480;-60
2022/01/20 05:26:28;;;;;;;;;;;;;;;14.64;56.64;102261.69;1056857;28;1545;-60
2022/01/20 05:27:19;;;;;;;;;;;;;;;14.64;56.09;102264.38;1057072;28;1471;-60